sensor_id;sensor_type;location;lat;lon;timestamp;pressure;altitude;pressure_sealevel;temperature;humidity
62864;BME280;48954;59.950;11.014;2023-03-30T00:01:44;99541.19;;;-5.90;70.57
62864;BME280;48954;59.950;11.014;2023-03-30T00:04:12;99540.50;;;-5.96;70.47
62864;BME280;48954;59.950;11.014;2023-03-30T00:06:39;99535.86;;;-6.01;70.77
62864;BME280;48954;59.950;11.014;2023-03-30T00:09:05;99536.45;;;-6.07;70.68
62864;BME280;48954;59.950;11.014;2023-03-30T00:11:35;99533.95;;;-6.12;70.56
62864;BME280;48954;59.950;11.014;2023-03-30T00:14:01;99536.60;;;-6.17;70.78
62864;BME280;48954;59.950;11.014;2023-03-30T00:16:27;99535.86;;;-6.20;70.67
62864;BME280;48954;59.950;11.014;2023-03-30T00:18:53;99528.77;;;-6.24;70.87
62864;BME280;48954;59.950;11.014;2023-03-30T00:21:19;99523.30;;;-6.31;70.62
62864;BME280;48954;59.950;11.014;2023-03-30T00:23:48;99519.66;;;-6.37;70.67
62864;BME280;48954;59.950;11.014;2023-03-30T00:26:15;99513.84;;;-6.42;70.62
62864;BME280;48954;59.950;11.014;2023-03-30T00:28:42;99510.20;;;-6.48;70.64
62864;BME280;48954;59.950;11.014;2023-03-30T00:31:08;99503.52;;;-6.53;70.92
62864;BME280;48954;59.950;11.014;2023-03-30T00:33:35;99507.02;;;-6.57;70.95
62864;BME280;48954;59.950;11.014;2023-03-30T00:36:04;99503.38;;;-6.62;71.07
62864;BME280;48954;59.950;11.014;2023-03-30T00:38:30;99502.63;;;-6.67;70.95
62864;BME280;48954;59.950;11.014;2023-03-30T00:40:59;99507.77;;;-6.71;71.37
62864;BME280;48954;59.950;11.014;2023-03-30T00:43:26;99509.36;;;-6.73;71.72
62864;BME280;48954;59.950;11.014;2023-03-30T00:45:54;99505.44;;;-6.76;71.49
62864;BME280;48954;59.950;11.014;2023-03-30T00:48:29;99504.19;;;-6.78;71.51
62864;BME280;48954;59.950;11.014;2023-03-30T00:51:07;99504.69;;;-6.82;71.77
62864;BME280;48954;59.950;11.014;2023-03-30T00:56:05;99507.72;;;-6.89;71.71
62864;BME280;48954;59.950;11.014;2023-03-30T00:58:34;99509.30;;;-6.91;71.63
62864;BME280;48954;59.950;11.014;2023-03-30T01:01:02;99504.66;;;-6.94;71.74
62864;BME280;48954;59.950;11.014;2023-03-30T01:03:31;99503.17;;;-6.98;71.50
62864;BME280;48954;59.950;11.014;2023-03-30T01:06:01;99505.33;;;-7.00;71.70
62864;BME280;48954;59.950;11.014;2023-03-30T01:08:30;99504.40;;;-7.04;71.82
62864;BME280;48954;59.950;11.014;2023-03-30T01:11:00;99505.11;;;-7.06;71.63
62864;BME280;48954;59.950;11.014;2023-03-30T01:13:29;99509.77;;;-7.10;71.67
62864;BME280;48954;59.950;11.014;2023-03-30T01:18:59;99513.14;;;-7.24;71.53
62864;BME280;48954;59.950;11.014;2023-03-30T01:35:48;99493.27;;;-7.44;72.10
62864;BME280;48954;59.950;11.014;2023-03-30T01:41:17;99492.09;;;-7.55;71.83
62864;BME280;48954;59.950;11.014;2023-03-30T01:46:39;99491.27;;;-7.68;71.55
62864;BME280;48954;59.950;11.014;2023-03-30T01:49:15;99489.14;;;-7.75;71.61
62864;BME280;48954;59.950;11.014;2023-03-30T01:51:55;99489.34;;;-7.80;71.66
62864;BME280;48954;59.950;11.014;2023-03-30T01:54:30;99485.45;;;-7.83;71.93
62864;BME280;48954;59.950;11.014;2023-03-30T01:57:19;99491.05;;;-7.87;71.79
62864;BME280;48954;59.950;11.014;2023-03-30T02:00:00;99486.33;;;-7.93;71.86
62864;BME280;48954;59.950;11.014;2023-03-30T02:02:29;99476.67;;;-7.96;72.12
62864;BME280;48954;59.950;11.014;2023-03-30T02:04:58;99472.76;;;-8.00;71.73
62864;BME280;48954;59.950;11.014;2023-03-30T02:07:29;99463.52;;;-8.06;71.70
62864;BME280;48954;59.950;11.014;2023-03-30T02:10:01;99462.63;;;-8.08;71.81
62864;BME280;48954;59.950;11.014;2023-03-30T02:12:28;99461.75;;;-8.09;72.12
62864;BME280;48954;59.950;11.014;2023-03-30T02:14:59;99459.17;;;-8.10;72.04
62864;BME280;48954;59.950;11.014;2023-03-30T02:17:27;99452.66;;;-8.11;72.32
62864;BME280;48954;59.950;11.014;2023-03-30T02:19:55;99448.84;;;-8.12;72.13
62864;BME280;48954;59.950;11.014;2023-03-30T02:22:23;99441.35;;;-8.13;72.22
62864;BME280;48954;59.950;11.014;2023-03-30T02:24:52;99445.75;;;-8.15;72.12
62864;BME280;48954;59.950;11.014;2023-03-30T02:27:21;99442.80;;;-8.15;72.25
62864;BME280;48954;59.950;11.014;2023-03-30T02:29:48;99439.37;;;-8.18;72.40
62864;BME280;48954;59.950;11.014;2023-03-30T02:32:35;99442.98;;;-8.20;72.44
62864;BME280;48954;59.950;11.014;2023-03-30T02:38:23;99434.06;;;-8.21;72.75
62864;BME280;48954;59.950;11.014;2023-03-30T02:44:26;99437.79;;;-8.21;72.69
62864;BME280;48954;59.950;11.014;2023-03-30T02:49:42;99445.19;;;-8.17;72.87
62864;BME280;48954;59.950;11.014;2023-03-30T02:52:49;99438.88;;;-8.14;73.13
62864;BME280;48954;59.950;11.014;2023-03-30T02:58:14;99435.69;;;-8.10;73.15
62864;BME280;48954;59.950;11.014;2023-03-30T03:00:48;99429.38;;;-8.08;73.45
62864;BME280;48954;59.950;11.014;2023-03-30T03:03:21;99429.90;;;-8.05;73.41
62864;BME280;48954;59.950;11.014;2023-03-30T03:05:52;99429.27;;;-8.00;73.63
62864;BME280;48954;59.950;11.014;2023-03-30T03:08:23;99423.52;;;-7.95;73.77
62864;BME280;48954;59.950;11.014;2023-03-30T03:10:50;99414.91;;;-7.91;73.87
62864;BME280;48954;59.950;11.014;2023-03-30T03:13:19;99415.17;;;-7.88;73.55
62864;BME280;48954;59.950;11.014;2023-03-30T03:15:49;99411.80;;;-7.84;73.80
62864;BME280;48954;59.950;11.014;2023-03-30T03:18:24;99406.65;;;-7.82;73.94
62864;BME280;48954;59.950;11.014;2023-03-30T03:20:50;99407.87;;;-7.80;73.66
62864;BME280;48954;59.950;11.014;2023-03-30T03:23:21;99406.70;;;-7.78;73.77
62864;BME280;48954;59.950;11.014;2023-03-30T03:25:49;99403.61;;;-7.77;73.87
62864;BME280;48954;59.950;11.014;2023-03-30T03:28:15;99398.52;;;-7.75;74.00
62864;BME280;48954;59.950;11.014;2023-03-30T03:30:41;99392.80;;;-7.75;73.61
62864;BME280;48954;59.950;11.014;2023-03-30T03:33:08;99386.08;;;-7.74;73.81
62864;BME280;48954;59.950;11.014;2023-03-30T03:35:35;99379.89;;;-7.74;73.73
62864;BME280;48954;59.950;11.014;2023-03-30T03:38:02;99379.63;;;-7.74;73.79
62864;BME280;48954;59.950;11.014;2023-03-30T03:40:29;99377.15;;;-7.75;73.93
62864;BME280;48954;59.950;11.014;2023-03-30T03:42:54;99378.91;;;-7.75;73.89
62864;BME280;48954;59.950;11.014;2023-03-30T03:45:21;99378.59;;;-7.75;73.68
62864;BME280;48954;59.950;11.014;2023-03-30T03:47:52;99377.55;;;-7.76;73.44
62864;BME280;48954;59.950;11.014;2023-03-30T03:50:18;99371.99;;;-7.77;73.80
62864;BME280;48954;59.950;11.014;2023-03-30T03:52:44;99368.52;;;-7.78;73.84
62864;BME280;48954;59.950;11.014;2023-03-30T03:55:12;99368.84;;;-7.78;74.05
62864;BME280;48954;59.950;11.014;2023-03-30T03:57:39;99362.21;;;-7.79;73.69
62864;BME280;48954;59.950;11.014;2023-03-30T04:00:06;99363.71;;;-7.80;73.90
62864;BME280;48954;59.950;11.014;2023-03-30T04:02:33;99363.34;;;-7.79;73.71
62864;BME280;48954;59.950;11.014;2023-03-30T04:04:59;99359.70;;;-7.78;73.91
62864;BME280;48954;59.950;11.014;2023-03-30T04:07:29;99356.34;;;-7.79;73.92
62864;BME280;48954;59.950;11.014;2023-03-30T04:09:56;99364.79;;;-7.79;73.73
62864;BME280;48954;59.950;11.014;2023-03-30T04:12:22;99365.15;;;-7.79;74.03
62864;BME280;48954;59.950;11.014;2023-03-30T04:14:48;99361.04;;;-7.79;74.11
62864;BME280;48954;59.950;11.014;2023-03-30T04:17:15;99356.77;;;-7.79;74.16
62864;BME280;48954;59.950;11.014;2023-03-30T04:19:41;99361.14;;;-7.80;74.06
62864;BME280;48954;59.950;11.014;2023-03-30T04:22:08;99357.88;;;-7.81;74.02
62864;BME280;48954;59.950;11.014;2023-03-30T04:24:56;99355.48;;;-7.83;74.04
62864;BME280;48954;59.950;11.014;2023-03-30T04:27:38;99358.02;;;-7.85;74.16
62864;BME280;48954;59.950;11.014;2023-03-30T04:30:04;99355.27;;;-7.87;73.96
62864;BME280;48954;59.950;11.014;2023-03-30T04:32:30;99358.40;;;-7.88;74.04
62864;BME280;48954;59.950;11.014;2023-03-30T04:34:56;99357.79;;;-7.90;74.08
62864;BME280;48954;59.950;11.014;2023-03-30T04:37:23;99353.77;;;-7.93;73.99
62864;BME280;48954;59.950;11.014;2023-03-30T04:39:49;99354.23;;;-7.96;74.18
62864;BME280;48954;59.950;11.014;2023-03-30T04:42:15;99351.75;;;-7.97;73.89
62864;BME280;48954;59.950;11.014;2023-03-30T04:44:43;99350.64;;;-8.00;73.95
62864;BME280;48954;59.950;11.014;2023-03-30T04:47:10;99355.54;;;-8.01;74.24
62864;BME280;48954;59.950;11.014;2023-03-30T04:49:36;99353.70;;;-8.03;74.13
62864;BME280;48954;59.950;11.014;2023-03-30T04:52:02;99352.66;;;-8.05;74.08
62864;BME280;48954;59.950;11.014;2023-03-30T04:54:28;99350.63;;;-8.06;73.99
62864;BME280;48954;59.950;11.014;2023-03-30T04:56:57;99352.91;;;-8.07;73.93
62864;BME280;48954;59.950;11.014;2023-03-30T04:59:24;99351.02;;;-8.12;73.58
62864;BME280;48954;59.950;11.014;2023-03-30T05:01:51;99353.13;;;-8.18;73.77
62864;BME280;48954;59.950;11.014;2023-03-30T05:04:18;99352.92;;;-8.25;73.94
62864;BME280;48954;59.950;11.014;2023-03-30T05:06:44;99352.98;;;-8.29;73.96
62864;BME280;48954;59.950;11.014;2023-03-30T05:09:10;99356.06;;;-8.30;73.99
62864;BME280;48954;59.950;11.014;2023-03-30T05:11:36;99349.89;;;-8.28;74.10
62864;BME280;48954;59.950;11.014;2023-03-30T05:14:04;99346.28;;;-8.27;74.27
62864;BME280;48954;59.950;11.014;2023-03-30T05:16:31;99351.54;;;-8.25;74.22
62864;BME280;48954;59.950;11.014;2023-03-30T05:18:57;99352.48;;;-8.23;74.37
62864;BME280;48954;59.950;11.014;2023-03-30T05:21:23;99349.66;;;-8.22;74.13
62864;BME280;48954;59.950;11.014;2023-03-30T05:23:51;99348.45;;;-8.21;74.17
62864;BME280;48954;59.950;11.014;2023-03-30T05:26:17;99353.02;;;-8.19;74.04
62864;BME280;48954;59.950;11.014;2023-03-30T05:28:45;99350.88;;;-8.15;74.36
62864;BME280;48954;59.950;11.014;2023-03-30T05:31:12;99344.98;;;-8.09;74.46
62864;BME280;48954;59.950;11.014;2023-03-30T05:33:38;99339.88;;;-8.02;74.10
62864;BME280;48954;59.950;11.014;2023-03-30T05:36:05;99340.57;;;-7.94;74.27
62864;BME280;48954;59.950;11.014;2023-03-30T05:38:35;99333.61;;;-7.86;74.18
62864;BME280;48954;59.950;11.014;2023-03-30T05:41:03;99333.11;;;-7.79;74.21
62864;BME280;48954;59.950;11.014;2023-03-30T05:43:31;99333.70;;;-7.69;74.36
62864;BME280;48954;59.950;11.014;2023-03-30T05:45:58;99330.17;;;-7.63;74.04
62864;BME280;48954;59.950;11.014;2023-03-30T05:48:24;99332.34;;;-7.57;74.03
62864;BME280;48954;59.950;11.014;2023-03-30T05:50:50;99329.61;;;-7.51;74.10
62864;BME280;48954;59.950;11.014;2023-03-30T05:53:17;99327.51;;;-7.43;74.02
62864;BME280;48954;59.950;11.014;2023-03-30T05:55:47;99327.35;;;-7.32;73.88
62864;BME280;48954;59.950;11.014;2023-03-30T05:58:13;99324.73;;;-7.24;74.03
62864;BME280;48954;59.950;11.014;2023-03-30T06:00:39;99322.80;;;-7.16;74.11
62864;BME280;48954;59.950;11.014;2023-03-30T06:03:10;99322.95;;;-7.09;73.98
62864;BME280;48954;59.950;11.014;2023-03-30T06:05:39;99320.88;;;-7.02;74.05
62864;BME280;48954;59.950;11.014;2023-03-30T06:08:06;99321.55;;;-6.97;73.95
62864;BME280;48954;59.950;11.014;2023-03-30T06:10:33;99318.88;;;-6.92;74.00
62864;BME280;48954;59.950;11.014;2023-03-30T06:13:00;99318.03;;;-6.90;73.84
62864;BME280;48954;59.950;11.014;2023-03-30T06:15:27;99310.17;;;-6.87;73.64
62864;BME280;48954;59.950;11.014;2023-03-30T06:17:53;99304.84;;;-6.85;73.63
62864;BME280;48954;59.950;11.014;2023-03-30T06:20:20;99298.27;;;-6.84;73.33
62864;BME280;48954;59.950;11.014;2023-03-30T06:22:47;99295.30;;;-6.81;73.84
62864;BME280;48954;59.950;11.014;2023-03-30T06:25:13;99294.14;;;-6.80;73.64
62864;BME280;48954;59.950;11.014;2023-03-30T06:27:39;99298.54;;;-6.79;73.67
62864;BME280;48954;59.950;11.014;2023-03-30T06:30:06;99299.73;;;-6.77;73.85
62864;BME280;48954;59.950;11.014;2023-03-30T06:32:33;99304.26;;;-6.71;73.94
62864;BME280;48954;59.950;11.014;2023-03-30T06:34:59;99303.02;;;-6.65;73.99
62864;BME280;48954;59.950;11.014;2023-03-30T06:37:26;99302.26;;;-6.57;74.13
62864;BME280;48954;59.950;11.014;2023-03-30T06:39:52;99301.95;;;-6.46;74.18
62864;BME280;48954;59.950;11.014;2023-03-30T06:42:19;99304.73;;;-6.35;74.32
62864;BME280;48954;59.950;11.014;2023-03-30T06:44:45;99305.48;;;-6.25;74.14
62864;BME280;48954;59.950;11.014;2023-03-30T06:47:11;99301.30;;;-6.15;74.18
62864;BME280;48954;59.950;11.014;2023-03-30T06:49:37;99295.77;;;-6.05;74.20
62864;BME280;48954;59.950;11.014;2023-03-30T06:52:03;99300.89;;;-5.98;73.87
62864;BME280;48954;59.950;11.014;2023-03-30T06:54:31;99299.08;;;-5.92;73.94
62864;BME280;48954;59.950;11.014;2023-03-30T06:57:00;99291.21;;;-5.86;73.78
62864;BME280;48954;59.950;11.014;2023-03-30T06:59:26;99282.98;;;-5.78;73.81
62864;BME280;48954;59.950;11.014;2023-03-30T07:01:53;99278.11;;;-5.72;73.84
62864;BME280;48954;59.950;11.014;2023-03-30T07:04:22;99273.09;;;-5.65;73.73
62864;BME280;48954;59.950;11.014;2023-03-30T07:06:48;99269.58;;;-5.58;73.62
62864;BME280;48954;59.950;11.014;2023-03-30T07:09:14;99268.46;;;-5.51;73.68
62864;BME280;48954;59.950;11.014;2023-03-30T07:11:41;99262.41;;;-5.45;73.70
62864;BME280;48954;59.950;11.014;2023-03-30T07:14:06;99267.50;;;-5.40;73.48
62864;BME280;48954;59.950;11.014;2023-03-30T07:16:32;99264.08;;;-5.33;73.63
62864;BME280;48954;59.950;11.014;2023-03-30T07:18:58;99263.71;;;-5.25;73.56
62864;BME280;48954;59.950;11.014;2023-03-30T07:21:24;99265.48;;;-5.17;73.41
62864;BME280;48954;59.950;11.014;2023-03-30T07:23:50;99266.23;;;-5.10;73.32
62864;BME280;48954;59.950;11.014;2023-03-30T07:26:17;99256.89;;;-5.06;73.21
62864;BME280;48954;59.950;11.014;2023-03-30T07:28:43;99252.17;;;-5.01;73.28
62864;BME280;48954;59.950;11.014;2023-03-30T07:31:10;99253.84;;;-4.95;73.00
62864;BME280;48954;59.950;11.014;2023-03-30T07:33:37;99246.84;;;-4.92;73.12
62864;BME280;48954;59.950;11.014;2023-03-30T07:36:04;99243.41;;;-4.91;72.84
62864;BME280;48954;59.950;11.014;2023-03-30T07:38:32;99240.63;;;-4.88;72.49
62864;BME280;48954;59.950;11.014;2023-03-30T07:40:59;99242.06;;;-4.82;72.89
62864;BME280;48954;59.950;11.014;2023-03-30T07:43:25;99240.17;;;-4.73;72.88
62864;BME280;48954;59.950;11.014;2023-03-30T07:45:51;99241.75;;;-4.67;72.77
62864;BME280;48954;59.950;11.014;2023-03-30T07:48:18;99243.58;;;-4.61;72.73
62864;BME280;48954;59.950;11.014;2023-03-30T07:50:44;99243.17;;;-4.52;72.57
62864;BME280;48954;59.950;11.014;2023-03-30T07:53:10;99236.91;;;-4.41;72.66
62864;BME280;48954;59.950;11.014;2023-03-30T07:55:37;99233.16;;;-4.29;72.58
62864;BME280;48954;59.950;11.014;2023-03-30T07:58:02;99233.21;;;-4.15;72.17
62864;BME280;48954;59.950;11.014;2023-03-30T08:00:29;99231.83;;;-4.04;72.17
62864;BME280;48954;59.950;11.014;2023-03-30T08:02:55;99228.31;;;-3.92;72.01
62864;BME280;48954;59.950;11.014;2023-03-30T08:05:21;99229.38;;;-3.81;71.88
62864;BME280;48954;59.950;11.014;2023-03-30T08:07:47;99224.80;;;-3.70;71.75
62864;BME280;48954;59.950;11.014;2023-03-30T08:10:16;99222.83;;;-3.64;71.52
62864;BME280;48954;59.950;11.014;2023-03-30T08:12:45;99224.92;;;-3.57;71.40
62864;BME280;48954;59.950;11.014;2023-03-30T08:15:14;99226.80;;;-3.50;71.56
62864;BME280;48954;59.950;11.014;2023-03-30T08:17:41;99225.31;;;-3.44;71.14
62864;BME280;48954;59.950;11.014;2023-03-30T08:20:07;99227.17;;;-3.40;71.03
62864;BME280;48954;59.950;11.014;2023-03-30T08:22:40;99221.88;;;-3.38;70.92
62864;BME280;48954;59.950;11.014;2023-03-30T08:25:06;99217.41;;;-3.30;70.91
62864;BME280;48954;59.950;11.014;2023-03-30T08:27:32;99215.14;;;-3.21;71.01
62864;BME280;48954;59.950;11.014;2023-03-30T08:29:58;99211.95;;;-3.09;70.76
62864;BME280;48954;59.950;11.014;2023-03-30T08:32:26;99208.91;;;-2.99;71.05
62864;BME280;48954;59.950;11.014;2023-03-30T08:34:52;99211.77;;;-2.88;70.81
62864;BME280;48954;59.950;11.014;2023-03-30T08:37:19;99206.71;;;-2.85;70.36
62864;BME280;48954;59.950;11.014;2023-03-30T08:39:45;99196.77;;;-2.80;70.17
62864;BME280;48954;59.950;11.014;2023-03-30T08:42:33;99194.10;;;-2.72;70.25
62864;BME280;48954;59.950;11.014;2023-03-30T08:45:03;99187.00;;;-2.62;70.13
62864;BME280;48954;59.950;11.014;2023-03-30T08:47:36;99190.09;;;-2.45;70.22
62864;BME280;48954;59.950;11.014;2023-03-30T08:50:34;99187.27;;;-2.22;70.03
62864;BME280;48954;59.950;11.014;2023-03-30T08:53:02;99187.67;;;-2.04;69.83
62864;BME280;48954;59.950;11.014;2023-03-30T08:55:44;99191.66;;;-1.85;69.85
62864;BME280;48954;59.950;11.014;2023-03-30T08:58:35;99188.77;;;-1.68;69.47
62864;BME280;48954;59.950;11.014;2023-03-30T09:01:17;99188.20;;;-1.54;69.33
62864;BME280;48954;59.950;11.014;2023-03-30T09:07:20;99190.08;;;-1.23;68.92
62864;BME280;48954;59.950;11.014;2023-03-30T09:09:55;99181.48;;;-1.07;68.63
62864;BME280;48954;59.950;11.014;2023-03-30T09:12:34;99178.02;;;-0.97;67.81
62864;BME280;48954;59.950;11.014;2023-03-30T09:20:22;99171.78;;;-0.78;67.47
62864;BME280;48954;59.950;11.014;2023-03-30T09:22:54;99171.94;;;-0.77;66.93
62864;BME280;48954;59.950;11.014;2023-03-30T09:25:34;99171.55;;;-0.75;66.61
62864;BME280;48954;59.950;11.014;2023-03-30T09:31:26;99163.39;;;-0.58;66.96
62864;BME280;48954;59.950;11.014;2023-03-30T09:39:21;99155.48;;;-0.28;66.21
62864;BME280;48954;59.950;11.014;2023-03-30T09:42:12;99151.89;;;-0.16;66.22
62864;BME280;48954;59.950;11.014;2023-03-30T09:45:10;99151.86;;;-0.08;65.55
62864;BME280;48954;59.950;11.014;2023-03-30T09:47:40;99142.70;;;0.06;65.28
62864;BME280;48954;59.950;11.014;2023-03-30T09:50:16;99144.38;;;0.27;65.20
62864;BME280;48954;59.950;11.014;2023-03-30T09:52:58;99141.28;;;0.46;65.05
62864;BME280;48954;59.950;11.014;2023-03-30T09:58:17;99139.09;;;0.65;64.39
62864;BME280;48954;59.950;11.014;2023-03-30T10:00:46;99137.20;;;0.71;64.56
62864;BME280;48954;59.950;11.014;2023-03-30T10:03:22;99133.80;;;0.81;64.31
62864;BME280;48954;59.950;11.014;2023-03-30T10:06:21;99134.31;;;0.78;63.80
62864;BME280;48954;59.950;11.014;2023-03-30T10:08:51;99131.70;;;0.57;63.88
62864;BME280;48954;59.950;11.014;2023-03-30T10:11:20;99128.46;;;0.43;63.95
62864;BME280;48954;59.950;11.014;2023-03-30T10:13:48;99125.73;;;0.34;63.87
62864;BME280;48954;59.950;11.014;2023-03-30T10:16:26;99122.08;;;0.32;64.13
62864;BME280;48954;59.950;11.014;2023-03-30T10:19:02;99124.08;;;0.41;64.20
62864;BME280;48954;59.950;11.014;2023-03-30T10:21:35;99121.65;;;0.48;63.69
62864;BME280;48954;59.950;11.014;2023-03-30T10:24:18;99116.91;;;0.44;63.49
62864;BME280;48954;59.950;11.014;2023-03-30T10:26:51;99114.30;;;0.36;63.28
62864;BME280;48954;59.950;11.014;2023-03-30T10:29:22;99111.21;;;0.31;63.30
62864;BME280;48954;59.950;11.014;2023-03-30T10:32:29;99107.66;;;0.20;63.09
62864;BME280;48954;59.950;11.014;2023-03-30T10:34:56;99103.33;;;0.09;63.58
62864;BME280;48954;59.950;11.014;2023-03-30T10:37:31;99103.02;;;0.08;63.87
62864;BME280;48954;59.950;11.014;2023-03-30T10:40:00;99095.79;;;0.10;63.71
62864;BME280;48954;59.950;11.014;2023-03-30T10:42:30;99097.63;;;0.12;63.59
62864;BME280;48954;59.950;11.014;2023-03-30T10:45:03;99092.27;;;0.16;64.02
62864;BME280;48954;59.950;11.014;2023-03-30T10:55:32;99072.23;;;0.46;63.57
62864;BME280;48954;59.950;11.014;2023-03-30T11:00:50;99074.06;;;0.65;63.27
62864;BME280;48954;59.950;11.014;2023-03-30T11:03:28;99075.66;;;0.64;62.71
62864;BME280;48954;59.950;11.014;2023-03-30T11:06:21;99074.73;;;0.66;63.25
62864;BME280;48954;59.950;11.014;2023-03-30T11:08:52;99077.16;;;0.73;63.44
62864;BME280;48954;59.950;11.014;2023-03-30T11:11:36;99070.40;;;0.75;63.02
62864;BME280;48954;59.950;11.014;2023-03-30T11:14:10;99073.16;;;0.78;62.96
62864;BME280;48954;59.950;11.014;2023-03-30T11:16:56;99077.31;;;0.78;63.01
62864;BME280;48954;59.950;11.014;2023-03-30T11:19:33;99075.81;;;0.83;62.81
62864;BME280;48954;59.950;11.014;2023-03-30T11:24:54;99072.41;;;1.08;62.85
62864;BME280;48954;59.950;11.014;2023-03-30T11:27:38;99061.93;;;1.30;62.93
62864;BME280;48954;59.950;11.014;2023-03-30T11:30:26;99057.52;;;1.43;62.42
62864;BME280;48954;59.950;11.014;2023-03-30T11:35:52;99041.37;;;1.46;61.80
62864;BME280;48954;59.950;11.014;2023-03-30T11:41:20;99043.34;;;1.30;61.69
62864;BME280;48954;59.950;11.014;2023-03-30T11:44:00;99036.92;;;1.26;61.93
62864;BME280;48954;59.950;11.014;2023-03-30T11:46:39;99039.47;;;1.20;61.65
62864;BME280;48954;59.950;11.014;2023-03-30T11:49:26;99031.30;;;1.13;61.62
62864;BME280;48954;59.950;11.014;2023-03-30T11:52:12;99027.96;;;1.18;61.73
62864;BME280;48954;59.950;11.014;2023-03-30T11:58:14;99017.17;;;1.10;61.80
62864;BME280;48954;59.950;11.014;2023-03-30T12:04:15;99012.54;;;0.94;61.41
62864;BME280;48954;59.950;11.014;2023-03-30T12:07:14;99012.46;;;0.81;61.79
62864;BME280;48954;59.950;11.014;2023-03-30T12:09:54;99013.44;;;0.63;61.67
62864;BME280;48954;59.950;11.014;2023-03-30T12:12:36;99008.30;;;0.57;61.96
62864;BME280;48954;59.950;11.014;2023-03-30T12:18:13;99000.34;;;0.69;61.76
62864;BME280;48954;59.950;11.014;2023-03-30T12:23:48;98990.56;;;1.01;61.93
62864;BME280;48954;59.950;11.014;2023-03-30T12:26:26;98985.56;;;1.24;61.75
62864;BME280;48954;59.950;11.014;2023-03-30T12:29:12;98980.27;;;1.45;61.66
62864;BME280;48954;59.950;11.014;2023-03-30T12:34:23;98970.79;;;1.81;60.77
62864;BME280;48954;59.950;11.014;2023-03-30T12:37:05;98971.83;;;1.86;60.62
62864;BME280;48954;59.950;11.014;2023-03-30T12:39:40;98965.66;;;1.95;60.45
62864;BME280;48954;59.950;11.014;2023-03-30T12:42:23;98962.73;;;2.08;60.55
62864;BME280;48954;59.950;11.014;2023-03-30T12:53:37;98959.52;;;2.07;60.47
62864;BME280;48954;59.950;11.014;2023-03-30T12:56:40;98954.73;;;2.07;60.42
62864;BME280;48954;59.950;11.014;2023-03-30T13:00:10;98952.98;;;2.01;59.70
62864;BME280;48954;59.950;11.014;2023-03-30T13:02:35;98948.38;;;1.93;59.87
62864;BME280;48954;59.950;11.014;2023-03-30T13:05:28;98944.45;;;1.85;59.89
62864;BME280;48954;59.950;11.014;2023-03-30T13:13:59;98931.20;;;1.63;59.82
62864;BME280;48954;59.950;11.014;2023-03-30T13:32:44;98914.13;;;1.67;60.04
62864;BME280;48954;59.950;11.014;2023-03-30T13:38:32;98907.51;;;1.70;59.87
62864;BME280;48954;59.950;11.014;2023-03-30T13:41:20;98904.31;;;1.64;60.10
62864;BME280;48954;59.950;11.014;2023-03-30T13:50:30;98890.97;;;1.84;59.96
62864;BME280;48954;59.950;11.014;2023-03-30T13:53:01;98891.17;;;1.96;59.98
62864;BME280;48954;59.950;11.014;2023-03-30T13:55:33;98889.13;;;2.16;59.77
62864;BME280;48954;59.950;11.014;2023-03-30T13:58:12;98883.86;;;2.25;59.53
62864;BME280;48954;59.950;11.014;2023-03-30T14:03:58;98876.50;;;2.68;59.03
62864;BME280;48954;59.950;11.014;2023-03-30T14:07:10;98866.56;;;2.88;58.90
62864;BME280;48954;59.950;11.014;2023-03-30T14:10:13;98867.80;;;2.97;58.29
62864;BME280;48954;59.950;11.014;2023-03-30T14:12:41;98861.63;;;2.99;58.48
62864;BME280;48954;59.950;11.014;2023-03-30T14:15:16;98858.94;;;3.04;58.75
62864;BME280;48954;59.950;11.014;2023-03-30T14:17:51;98858.81;;;3.10;58.44
62864;BME280;48954;59.950;11.014;2023-03-30T14:23:43;98852.66;;;3.02;57.91
62864;BME280;48954;59.950;11.014;2023-03-30T14:26:27;98852.72;;;2.95;57.72
62864;BME280;48954;59.950;11.014;2023-03-30T14:29:05;98843.86;;;2.95;58.05
62864;BME280;48954;59.950;11.014;2023-03-30T14:32:02;98843.15;;;3.03;57.75
62864;BME280;48954;59.950;11.014;2023-03-30T14:34:37;98833.64;;;3.08;57.78
62864;BME280;48954;59.950;11.014;2023-03-30T14:37:15;98834.59;;;3.16;58.01
62864;BME280;48954;59.950;11.014;2023-03-30T14:39:58;98835.39;;;3.21;57.94
62864;BME280;48954;59.950;11.014;2023-03-30T14:42:38;98836.57;;;3.24;57.80
62864;BME280;48954;59.950;11.014;2023-03-30T14:45:20;98828.11;;;3.30;58.04
62864;BME280;48954;59.950;11.014;2023-03-30T14:48:04;98826.88;;;3.33;57.63
62864;BME280;48954;59.950;11.014;2023-03-30T14:50:47;98827.19;;;3.33;57.54
62864;BME280;48954;59.950;11.014;2023-03-30T14:53:28;98823.95;;;3.25;57.27
62864;BME280;48954;59.950;11.014;2023-03-30T14:56:09;98822.73;;;3.11;57.15
62864;BME280;48954;59.950;11.014;2023-03-30T14:58:51;98823.15;;;3.03;57.18
62864;BME280;48954;59.950;11.014;2023-03-30T15:01:31;98816.09;;;3.02;57.12
62864;BME280;48954;59.950;11.014;2023-03-30T15:04:13;98813.05;;;2.99;57.41
62864;BME280;48954;59.950;11.014;2023-03-30T15:06:56;98811.41;;;2.94;57.11
62864;BME280;48954;59.950;11.014;2023-03-30T15:09:44;98807.57;;;2.89;57.14
62864;BME280;48954;59.950;11.014;2023-03-30T15:12:34;98802.09;;;2.86;57.57
62864;BME280;48954;59.950;11.014;2023-03-30T15:15:19;98801.83;;;2.87;57.40
62864;BME280;48954;59.950;11.014;2023-03-30T15:18:24;98798.86;;;2.86;57.42
62864;BME280;48954;59.950;11.014;2023-03-30T15:21:13;98793.94;;;2.85;57.45
62864;BME280;48954;59.950;11.014;2023-03-30T15:24:18;98791.48;;;2.82;57.36
62864;BME280;48954;59.950;11.014;2023-03-30T15:27:10;98791.70;;;2.74;57.42
62864;BME280;48954;59.950;11.014;2023-03-30T15:30:47;98787.30;;;2.68;57.28
62864;BME280;48954;59.950;11.014;2023-03-30T15:33:54;98787.43;;;2.51;57.49
62864;BME280;48954;59.950;11.014;2023-03-30T15:36:39;98785.77;;;2.46;57.45
62864;BME280;48954;59.950;11.014;2023-03-30T15:39:27;98786.09;;;2.42;57.79
62864;BME280;48954;59.950;11.014;2023-03-30T15:42:11;98779.69;;;2.37;57.64
62864;BME280;48954;59.950;11.014;2023-03-30T15:45:15;98777.52;;;2.33;57.94